Impacts TAF Board INFO
FOR SITUATIONAL AWARENESS. NOT TO BE USED FOR FLIGHT PLANNING PURPOSES.
IDs:

KIAD - Washington/Dulles In, VA, US

Issued at 2036 UTC 14 Aug 2018
Updated at 2203 UTC 14 Aug 2018
Potential Impact None Slight Moderate High
Time<<15/11Z 15/12Z 15/13Z 15/14Z 15/15Z 15/16Z 15/17Z 15/18Z 15/19Z 15/20Z 15/21Z 15/22Z 15/23Z>>
Type PRVL PRVL PRVL PRVL PRVL PRVL PRVL PRVL PRVL PRVL PRVL PRVL PRVL
VIS >6 >6 >6 >6 >6 >6 >6 >6 >6 >6 >6 >6 >6
CIG -- -- -- -- -- -- -- -- -- -- -- -- --
Cover SCT SCT SCT SCT SCT SCT SCT SCT SCT SCT SCT SCT SCT
FltCat VFR VFR VFR VFR VFR VFR VFR VFR VFR VFR VFR VFR VFR
WX -- -- -- -- -- -- -- -- -- -- -- -- --
WDir VRB VRB 290 290 290 290 290 290 290 290 290 250 250
WSpd 3 3 8 8 8 8 8 8 8 8 8 4 4
WGst -- -- -- -- -- -- -- -- -- -- -- -- --

Raw TAF
KIAD 142036Z 1421/1524 27009G16KT P6SM VCTS SCT045CB BKN150
  TEMPO 1421/1422 30014G22KT 5SM -SHRA BKN045
  FM142300 31006KT P6SM SCT060 BKN120
  FM150600 VRB03KT P6SM SCT120
  FM151300 29008KT P6SM FEW070 SCT250
  FM152200 25004KT P6SM FEW070 SCT250


METAR Board
Radar Display
Forecast Discussion

FOR SITUATIONAL AWARENESS. NOT TO BE USED FOR FLIGHT PLANNING PURPOSES.